Time;durP1;ratioP1;P1;durP2;ratioP2;P2;SDS_P1;SDS_P2;PMS_P1;PMS_P2;Temp;Humidity;BMP_temperature;BMP_pressure;BME280_temperature;BME280_humidity;BME280_pressure;Samples;Min_cycle;Max_cycle;Signal;HPM_P1;HPM_P2
2022/12/22 03:26:02;;;;;;;2.47;1.30;;;;;;;12.89;65.26;96796.03;5054400;28;20465;-69
2022/12/22 03:28:28;;;;;;;1.33;1.23;;;;;;;12.93;64.80;96797.31;5055203;28;20425;-71
2022/12/22 03:30:59;;;;;;;4.77;1.50;;;;;;;12.88;64.94;96800.47;5061410;28;20355;-68
2022/12/22 03:33:25;;;;;;;1.63;1.30;;;;;;;12.92;64.46;96793.03;5055376;28;20588;-69
2022/12/22 03:35:50;;;;;;;2.37;1.40;;;;;;;12.89;65.14;96753.94;5063755;28;20509;-70
2022/12/22 03:38:16;;;;;;;2.87;1.30;;;;;;;12.64;65.66;96748.88;5052722;28;20179;-71
2022/12/22 03:40:41;;;;;;;2.17;1.10;;;;;;;12.77;65.73;96744.84;5058864;28;20592;-72
2022/12/22 03:48:38;;;;;;;1.50;1.30;;;;;;;12.73;65.93;96760.97;5049925;28;20435;-70
2022/12/22 03:51:04;;;;;;;1.50;1.00;;;;;;;12.72;65.75;96764.63;5060767;28;20816;-71
2022/12/22 03:53:29;;;;;;;1.63;1.20;;;;;;;12.71;65.94;96759.53;5059150;28;20198;-71
2022/12/22 03:55:55;;;;;;;2.83;1.30;;;;;;;12.81;65.31;96751.41;5058589;28;20282;-70
2022/12/22 03:58:20;;;;;;;2.13;0.93;;;;;;;12.85;65.33;96755.31;5066099;28;20274;-70
2022/12/22 04:00:46;;;;;;;1.10;1.00;;;;;;;12.85;65.33;96757.94;5059508;28;20209;-71
2022/12/22 04:03:11;;;;;;;2.60;1.47;;;;;;;12.90;65.01;96755.59;5060298;28;20262;-72
2022/12/22 04:05:37;;;;;;;1.20;1.10;;;;;;;12.88;65.23;96762.81;5059453;28;20214;-71
2022/12/22 04:08:02;;;;;;;3.43;0.97;;;;;;;12.86;65.25;96759.56;5059482;28;20197;-71
2022/12/22 04:13:12;;;;;;;2.20;1.10;;;;;;;12.86;64.94;96751.66;5059254;28;20270;-70
2022/12/22 04:15:37;;;;;;;1.60;1.00;;;;;;;12.89;65.02;96739.00;5062469;28;20934;-71
2022/12/22 04:18:03;;;;;;;4.20;1.27;;;;;;;12.95;64.88;96742.72;5051978;28;20250;-71
2022/12/22 04:20:28;;;;;;;1.67;1.10;;;;;;;12.97;64.80;96734.66;5053710;28;20198;-71
2022/12/22 04:22:54;;;;;;;1.40;1.20;;;;;;;13.00;64.57;96740.34;5046089;28;20179;-71
2022/12/22 04:25:21;;;;;;;2.73;1.20;;;;;;;13.00;64.55;96734.28;5050479;28;20195;-71
2022/12/22 04:27:46;;;;;;;3.53;0.90;;;;;;;12.97;64.81;96724.97;5050729;28;20433;-72
2022/12/22 04:30:12;;;;;;;1.20;0.80;;;;;;;12.99;64.74;96722.13;5052274;28;20468;-71
2022/12/22 04:32:38;;;;;;;2.53;1.20;;;;;;;12.95;65.31;96721.69;5055784;28;20221;-71
2022/12/22 04:35:04;;;;;;;1.70;1.03;;;;;;;12.97;65.07;96718.88;5054540;28;20433;-70
2022/12/22 04:37:30;;;;;;;1.23;0.90;;;;;;;13.03;65.15;96710.28;5053714;28;20213;-70
2022/12/22 04:39:55;;;;;;;1.47;1.00;;;;;;;12.97;64.89;96709.19;5056953;28;20422;-71
2022/12/22 04:42:21;;;;;;;5.00;1.10;;;;;;;12.93;65.11;96702.63;5058311;28;20537;-70
2022/12/22 04:44:46;;;;;;;1.20;1.10;;;;;;;12.82;65.50;96710.97;5055788;28;20183;-71
2022/12/22 04:47:12;;;;;;;5.13;1.20;;;;;;;12.80;65.42;96697.97;5054340;28;20997;-69
2022/12/22 04:49:37;;;;;;;2.70;1.10;;;;;;;12.95;64.77;96697.19;5058297;28;20670;-70
2022/12/22 04:52:03;;;;;;;2.27;1.07;;;;;;;12.81;64.83;96698.81;5038346;28;20215;-71
2022/12/22 04:54:28;;;;;;;4.87;1.10;;;;;;;12.86;64.65;96704.31;5052669;28;20175;-70
2022/12/22 04:56:53;;;;;;;2.37;1.10;;;;;;;12.98;64.55;96688.94;5052316;28;20220;-71
2022/12/22 04:59:19;;;;;;;3.30;1.27;;;;;;;12.93;64.63;96696.53;5054494;28;20270;-70
2022/12/22 05:01:44;;;;;;;2.20;0.97;;;;;;;12.91;64.28;96699.34;5053580;28;20210;-69
2022/12/22 05:04:10;;;;;;;1.87;1.00;;;;;;;12.90;64.72;96702.97;5036027;28;20211;-69
2022/12/22 05:06:35;;;;;;;4.03;1.10;;;;;;;12.87;64.60;96704.16;5057248;28;20298;-69
2022/12/22 05:09:01;;;;;;;2.13;1.00;;;;;;;12.84;64.67;96695.81;5057537;28;20219;-68
2022/12/22 05:11:26;;;;;;;2.90;0.97;;;;;;;12.82;64.57;96698.63;5053448;28;20289;-69
2022/12/22 05:13:52;;;;;;;1.10;0.97;;;;;;;12.91;64.86;96709.88;5053503;28;20179;-68
2022/12/22 05:16:17;;;;;;;3.00;1.20;;;;;;;12.92;64.84;96703.63;5058411;28;20262;-68
2022/12/22 05:18:44;;;;;;;3.00;1.10;;;;;;;12.89;64.78;96696.09;5053769;28;20183;-69
2022/12/22 05:21:17;;;;;;;3.50;1.30;;;;;;;12.83;64.77;96702.06;5058309;28;20202;-68
2022/12/22 05:23:43;;;;;;;1.53;0.90;;;;;;;12.75;65.47;96698.50;5053277;28;20947;-68
2022/12/22 05:26:09;;;;;;;1.67;0.83;;;;;;;12.69;65.70;96699.25;5056800;28;20453;-70
2022/12/22 05:28:35;;;;;;;4.50;1.40;;;;;;;12.82;65.12;96690.72;5052458;28;20187;-70
2022/12/22 05:31:08;;;;;;;2.67;0.90;;;;;;;12.95;64.82;96689.28;5052519;28;20490;-69
2022/12/22 05:33:34;;;;;;;3.53;1.30;;;;;;;12.93;64.85;96691.28;5054148;28;20249;-69
2022/12/22 05:35:59;;;;;;;2.80;1.10;;;;;;;12.91;64.99;96696.72;5057837;28;20430;-69
2022/12/22 05:38:25;;;;;;;3.93;1.10;;;;;;;12.75;65.62;96695.88;5045491;28;20955;-69
2022/12/22 05:40:50;;;;;;;2.17;1.17;;;;;;;12.89;65.43;96702.19;5054186;28;20206;-71
2022/12/22 05:43:16;;;;;;;2.30;1.00;;;;;;;12.83;65.46;96696.81;5061101;28;20649;-71
2022/12/22 05:45:44;;;;;;;5.43;1.20;;;;;;;13.10;65.02;96684.06;5054215;28;20234;-70
2022/12/22 05:48:10;;;;;;;2.70;1.33;;;;;;;13.09;64.87;96701.66;5051620;28;20190;-69
2022/12/22 05:50:35;;;;;;;4.20;1.30;;;;;;;12.97;65.47;96688.13;5051879;28;20441;-70
2022/12/22 05:53:01;;;;;;;3.77;1.33;;;;;;;13.05;64.85;96701.19;5062055;28;20533;-70
2022/12/22 05:55:26;;;;;;;3.07;1.30;;;;;;;13.11;64.89;96701.44;5059953;28;20214;-70
2022/12/22 05:57:52;;;;;;;3.10;1.17;;;;;;;13.09;64.96;96685.84;5051558;28;20183;-70
2022/12/22 06:00:18;;;;;;;3.33;1.30;;;;;;;13.14;64.83;96686.16;5059576;28;20256;-69
2022/12/22 06:02:44;;;;;;;3.43;1.10;;;;;;;13.07;65.01;96685.22;5057260;28;20183;-70
2022/12/22 06:05:10;;;;;;;4.73;1.30;;;;;;;13.02;64.41;96677.88;5050326;28;20595;-70
2022/12/22 06:07:36;;;;;;;3.83;1.47;;;;;;;13.09;64.54;96675.34;5059107;28;20430;-70
2022/12/22 06:10:03;;;;;;;3.43;1.13;;;;;;;12.98;64.25;96673.16;5066617;28;20420;-70
2022/12/22 06:12:28;;;;;;;5.43;1.63;;;;;;;12.96;64.36;96683.88;5051328;28;20271;-69
2022/12/22 06:14:54;;;;;;;9.13;1.43;;;;;;;12.89;64.27;96693.47;5057655;28;20508;-70
2022/12/22 06:17:19;;;;;;;4.80;1.47;;;;;;;13.01;63.93;96685.97;5054132;28;20221;-70
2022/12/22 06:19:45;;;;;;;3.17;1.20;;;;;;;12.94;64.10;96680.59;5063076;28;20194;-69
2022/12/22 06:22:10;;;;;;;7.43;1.87;;;;;;;12.88;64.20;96673.41;5047824;28;20290;-69
2022/12/22 06:24:36;;;;;;;8.50;1.80;;;;;;;12.89;63.80;96675.03;5051371;28;20552;-69
2022/12/22 06:27:01;;;;;;;6.50;1.60;;;;;;;12.68;64.01;96675.72;5051254;28;20253;-70
2022/12/22 06:29:27;;;;;;;3.87;1.33;;;;;;;12.87;63.61;96687.56;5057695;28;20572;-69
2022/12/22 06:31:52;;;;;;;5.80;1.60;;;;;;;12.86;63.41;96681.50;5051524;28;20345;-69
2022/12/22 06:34:18;;;;;;;5.17;1.80;;;;;;;12.89;62.74;96686.41;5057833;28;20257;-68
2022/12/22 06:36:44;;;;;;;4.83;1.53;;;;;;;12.79;63.21;96675.31;5057949;28;20171;-69
2022/12/22 06:39:10;;;;;;;5.47;1.73;;;;;;;12.82;62.82;96680.22;5051290;28;20175;-69
2022/12/22 06:44:19;;;;;;;9.37;2.17;;;;;;;12.91;62.33;96673.06;5053271;28;20232;-69
2022/12/22 06:46:45;;;;;;;5.77;1.70;;;;;;;12.94;61.95;96682.41;5055860;28;21004;-70
2022/12/22 06:49:10;;;;;;;8.10;1.50;;;;;;;12.99;61.90;96691.38;5061073;28;20181;-70
2022/12/22 06:51:36;;;;;;;8.70;1.90;;;;;;;12.87;61.85;96698.06;5051374;28;20212;-68
2022/12/22 06:54:01;;;;;;;4.17;1.50;;;;;;;12.97;61.10;96700.44;5058335;28;20253;-68
2022/12/22 06:56:27;;;;;;;6.20;1.90;;;;;;;13.05;60.94;96700.34;5050443;28;20182;-70
2022/12/22 06:58:55;;;;;;;3.53;1.27;;;;;;;13.09;60.17;96690.31;5042702;28;20665;-70
2022/12/22 07:01:20;;;;;;;6.63;1.70;;;;;;;13.24;60.04;96693.75;5044702;28;20286;-71
2022/12/22 07:03:45;;;;;;;4.70;1.53;;;;;;;13.27;60.10;96708.38;5043003;28;20526;-70
2022/12/22 07:06:11;;;;;;;9.70;1.90;;;;;;;13.17;60.53;96713.91;5043552;28;20348;-70
2022/12/22 07:08:36;;;;;;;11.60;2.10;;;;;;;13.32;59.98;96722.63;5056260;28;20205;-71
2022/12/22 07:11:02;;;;;;;7.87;1.80;;;;;;;13.26;59.98;96730.41;5056487;28;20297;-70
2022/12/22 07:13:33;;;;;;;5.67;1.87;;;;;;;13.30;60.09;96727.25;5051024;28;20175;-70
2022/12/22 07:16:03;;;;;;;6.57;1.70;;;;;;;13.41;59.29;96719.91;5055867;28;20183;-70
2022/12/22 07:18:35;;;;;;;5.70;1.60;;;;;;;13.26;59.79;96718.06;5054677;28;20936;-70
2022/12/22 07:21:02;;;;;;;5.43;1.70;;;;;;;13.41;59.24;96709.38;5047277;28;20434;-70
2022/12/22 07:23:27;;;;;;;8.27;1.57;;;;;;;13.31;59.00;96726.25;5048966;28;21103;-71
2022/12/22 07:25:53;;;;;;;16.40;2.17;;;;;;;13.43;58.87;96725.81;5042072;28;20466;-71
2022/12/22 07:28:18;;;;;;;6.60;1.50;;;;;;;13.45;58.77;96729.09;5048128;28;20635;-69
2022/12/22 07:30:44;;;;;;;10.00;2.10;;;;;;;13.47;58.51;96724.47;5049628;28;20199;-72
2022/12/22 07:33:09;;;;;;;4.20;1.47;;;;;;;13.37;58.19;96722.88;5037342;28;20229;-72
2022/12/22 07:35:35;;;;;;;8.57;1.70;;;;;;;13.22;58.62;96732.59;5040054;28;20617;-71
2022/12/22 07:38:01;;;;;;;7.40;1.83;;;;;;;13.28;58.30;96747.66;5050359;28;20210;-72
2022/12/22 07:40:26;;;;;;;10.60;1.50;;;;;;;13.29;58.52;96759.81;5028635;28;20810;-73
2022/12/22 07:42:58;;;;;;;5.40;1.57;;;;;;;13.22;59.38;96743.13;5049036;28;20281;-72
2022/12/22 07:45:25;;;;;;;7.90;1.80;;;;;;;13.34;59.88;96760.09;5055537;28;20215;-72
2022/12/22 07:47:50;;;;;;;9.67;2.10;;;;;;;13.45;60.07;96753.59;5058877;28;20524;-72
2022/12/22 07:50:24;;;;;;;7.87;1.80;;;;;;;13.36;61.02;96744.94;5049181;28;20425;-72
2022/12/22 07:52:52;;;;;;;6.10;1.47;;;;;;;13.26;61.83;96754.91;5057605;28;20616;-73
2022/12/22 07:55:18;;;;;;;8.10;1.70;;;;;;;13.11;62.59;96725.13;5046857;28;20484;-72
2022/12/22 07:57:44;;;;;;;7.90;1.50;;;;;;;13.05;63.06;96690.66;5048820;28;20417;-72
2022/12/22 08:00:10;;;;;;;11.00;1.83;;;;;;;12.97;63.28;96711.81;5048587;28;20539;-71
2022/12/22 08:02:35;;;;;;;6.20;1.60;;;;;;;12.93;63.56;96707.88;5057732;28;20187;-72
2022/12/22 08:05:01;;;;;;;6.40;1.87;;;;;;;13.00;63.42;96714.06;5051607;28;20769;-71
2022/12/22 08:07:26;;;;;;;6.90;1.70;;;;;;;13.36;63.31;96705.44;5053128;28;20261;-72
2022/12/22 08:09:52;;;;;;;8.60;1.60;;;;;;;13.78;62.10;96720.78;5058036;28;20182;-73
2022/12/22 08:12:17;;;;;;;8.67;1.80;;;;;;;13.92;61.12;96725.22;5056447;28;20753;-72
2022/12/22 08:14:44;;;;;;;8.37;2.00;;;;;;;13.54;61.46;96729.81;5054274;28;20640;-72
2022/12/22 08:17:12;;;;;;;5.77;1.83;;;;;;;13.35;61.85;96732.78;5051218;28;20183;-72
2022/12/22 08:19:38;;;;;;;8.10;2.20;;;;;;;13.48;61.76;96726.09;5036189;28;20880;-72
2022/12/22 08:22:03;;;;;;;8.23;2.13;;;;;;;13.71;61.63;96717.28;5053206;28;20449;-71
2022/12/22 08:24:29;;;;;;;4.90;1.83;;;;;;;14.13;60.56;96706.00;5054028;28;20220;-71
2022/12/22 08:26:59;;;;;;;10.30;1.97;;;;;;;14.25;59.45;96706.28;5054915;28;20203;-71
2022/12/22 08:29:47;;;;;;;9.03;1.70;;;;;;;14.10;59.26;96709.00;5065838;28;20194;-71
2022/12/22 08:32:12;;;;;;;9.47;1.90;;;;;;;13.95;59.66;96698.50;5054047;28;20514;-70
2022/12/22 08:34:38;;;;;;;12.93;2.20;;;;;;;14.12;59.10;96706.16;5057863;28;20434;-71
2022/12/22 08:37:06;;;;;;;8.53;2.00;;;;;;;14.05;59.11;96700.81;5058521;28;20186;-72
2022/12/22 08:39:34;;;;;;;6.43;2.17;;;;;;;13.92;58.93;96696.25;5046865;28;20694;-71
2022/12/22 08:42:00;;;;;;;9.83;2.23;;;;;;;13.95;59.00;96692.41;5061816;28;20960;-70
2022/12/22 08:44:27;;;;;;;6.80;1.70;;;;;;;13.81;59.09;96704.63;5070091;28;20414;-71
2022/12/22 08:46:54;;;;;;;10.83;2.60;;;;;;;13.87;59.00;96719.66;5061835;28;20227;-73
2022/12/22 08:49:20;;;;;;;8.03;2.20;;;;;;;14.29;58.61;96718.09;5021366;28;20426;-71
2022/12/22 08:51:45;;;;;;;8.60;1.50;;;;;;;14.34;57.73;96724.66;5059516;28;20441;-71
2022/12/22 08:54:11;;;;;;;12.70;2.50;;;;;;;14.42;57.32;96727.16;5056578;28;20254;-72
2022/12/22 08:56:37;;;;;;;9.60;2.20;;;;;;;14.44;56.57;96731.22;5055723;28;20172;-71
2022/12/22 08:59:04;;;;;;;9.60;2.10;;;;;;;14.44;56.25;96733.84;5053860;28;20541;-70
2022/12/22 09:01:31;;;;;;;6.03;2.10;;;;;;;15.00;55.59;96739.41;5054808;28;20219;-71
2022/12/22 09:03:57;;;;;;;13.27;1.90;;;;;;;15.24;54.98;96740.00;5055507;28;20425;-70
2022/12/22 09:06:24;;;;;;;7.90;2.17;;;;;;;15.78;54.37;96755.13;5052267;28;20464;-72
2022/12/22 09:08:56;;;;;;;8.33;1.83;;;;;;;16.09;52.17;96753.84;5049605;28;20440;-70
2022/12/22 09:11:23;;;;;;;7.83;1.70;;;;;;;16.36;50.84;96745.16;5050699;28;20437;-72
2022/12/22 09:13:52;;;;;;;4.67;1.50;;;;;;;15.92;51.37;96748.09;5061939;28;20481;-71
2022/12/22 09:16:19;;;;;;;7.07;1.70;;;;;;;15.86;52.00;96745.44;5053869;28;20410;-72
2022/12/22 09:18:44;;;;;;;9.13;2.90;;;;;;;15.40;53.65;96757.38;5063907;28;20426;-71
2022/12/22 09:21:10;;;;;;;8.97;2.03;;;;;;;15.01;55.19;96747.16;5050912;28;20503;-70
2022/12/22 09:23:35;;;;;;;7.77;1.50;;;;;;;14.84;56.14;96761.63;5053920;28;20538;-70
2022/12/22 09:26:06;;;;;;;7.70;1.90;;;;;;;14.27;58.38;96757.00;5051400;28;20199;-70
2022/12/22 09:28:31;;;;;;;9.57;2.03;;;;;;;14.44;58.19;96762.03;5052161;28;20187;-71
2022/12/22 09:30:57;;;;;;;7.50;1.80;;;;;;;14.38;58.82;96749.59;5053360;28;20496;-72
2022/12/22 09:33:25;;;;;;;5.30;1.60;;;;;;;14.35;58.90;96757.91;5053999;28;20182;-72
2022/12/22 09:35:50;;;;;;;7.53;2.03;;;;;;;14.18;59.55;96766.03;5054496;28;20170;-71
2022/12/22 09:38:16;;;;;;;4.80;1.60;;;;;;;14.07;60.54;96769.16;5053490;28;20414;-71
2022/12/22 09:40:41;;;;;;;10.60;2.00;;;;;;;13.80;61.16;96774.09;5054452;28;20301;-71
2022/12/22 09:43:11;;;;;;;7.87;2.20;;;;;;;13.83;61.29;96773.75;5054774;28;20183;-71
2022/12/22 09:45:36;;;;;;;9.63;1.73;;;;;;;13.67;61.88;96778.19;5054811;28;20210;-71
2022/12/22 09:48:02;;;;;;;9.03;2.23;;;;;;;13.58;62.49;96771.41;5053330;28;20409;-71
2022/12/22 09:50:37;;;;;;;6.87;1.90;;;;;;;13.54;62.61;96775.38;5051294;28;20218;-71
2022/12/22 09:53:04;;;;;;;7.13;1.97;;;;;;;13.47;63.14;96770.03;5050994;28;20194;-71
2022/12/22 09:55:41;;;;;;;7.60;1.90;;;;;;;13.04;64.48;96752.16;5060862;28;20440;-71
2022/12/22 09:58:26;;;;;;;6.83;1.77;;;;;;;13.20;64.40;96751.19;5053575;28;20436;-71
2022/12/22 10:00:59;;;;;;;7.73;2.10;;;;;;;13.30;64.09;96758.81;5053410;28;20439;-71
2022/12/22 10:03:42;;;;;;;3.97;1.80;;;;;;;13.26;64.22;96767.25;5052479;28;20509;-69
2022/12/22 10:06:33;;;;;;;5.43;1.97;;;;;;;13.39;64.59;96753.47;5065095;28;20544;-70
2022/12/22 10:09:10;;;;;;;5.80;1.47;;;;;;;13.21;65.05;96770.44;5052255;28;20468;-71
2022/12/22 10:11:36;;;;;;;16.67;2.23;;;;;;;13.34;65.09;96778.53;5057347;28;20993;-71
2022/12/22 10:14:01;;;;;;;4.20;1.43;;;;;;;13.08;65.54;96771.03;5076462;28;20421;-71
2022/12/22 10:16:27;;;;;;;6.50;1.40;;;;;;;13.36;65.00;96786.22;5056091;28;20718;-70
2022/12/22 10:19:06;;;;;;;12.13;2.07;;;;;;;13.27;65.67;96767.06;5053715;28;20701;-70
2022/12/22 10:21:31;;;;;;;3.03;1.50;;;;;;;13.42;65.55;96787.34;5050578;28;20460;-72
2022/12/22 10:23:57;;;;;;;3.93;1.40;;;;;;;13.49;65.08;96801.41;5060264;28;20811;-72
2022/12/22 10:26:31;;;;;;;8.57;1.53;;;;;;;13.54;64.97;96793.00;5053064;28;20211;-71
2022/12/22 10:29:02;;;;;;;5.23;1.70;;;;;;;13.28;65.51;96795.03;5051303;28;20483;-71
2022/12/22 10:31:30;;;;;;;9.70;1.47;;;;;;;13.34;65.14;96798.75;5051446;28;20445;-70
2022/12/22 10:34:08;;;;;;;6.43;1.67;;;;;;;13.46;65.31;96812.31;5053884;28;20417;-72
2022/12/22 10:36:34;;;;;;;10.00;1.60;;;;;;;13.20;66.16;96793.28;5044554;28;20440;-71
2022/12/22 10:39:05;;;;;;;9.10;1.30;;;;;;;13.29;66.24;96801.94;5052923;28;20936;-71
2022/12/22 10:41:35;;;;;;;6.60;1.47;;;;;;;13.43;65.62;96812.69;5062460;28;20278;-72
2022/12/22 10:44:04;;;;;;;8.73;1.50;;;;;;;13.37;66.05;96812.38;5048538;28;20432;-71
2022/12/22 10:46:37;;;;;;;5.83;1.50;;;;;;;13.45;65.78;96808.06;5052634;28;20457;-71
2022/12/22 10:49:13;;;;;;;5.97;1.60;;;;;;;13.47;65.61;96798.97;5047836;28;20410;-71
2022/12/22 10:51:40;;;;;;;5.20;1.90;;;;;;;12.96;66.01;96810.13;5045858;28;20471;-71
2022/12/22 10:54:05;;;;;;;4.37;1.60;;;;;;;13.21;66.29;96799.38;5051745;28;20476;-70
2022/12/22 10:56:31;;;;;;;4.27;1.47;;;;;;;13.28;66.15;96794.22;5052028;28;20928;-70
2022/12/22 10:59:00;;;;;;;7.27;1.67;;;;;;;13.51;65.68;96791.53;5068977;28;20194;-71
2022/12/22 11:01:34;;;;;;;5.87;1.47;;;;;;;13.57;65.77;96792.63;5051975;28;20803;-70
2022/12/22 11:04:23;;;;;;;8.17;1.60;;;;;;;13.55;65.64;96784.91;5035822;28;20432;-71
2022/12/22 11:06:49;;;;;;;10.93;1.73;;;;;;;13.52;65.70;96780.84;5034548;28;20468;-72
2022/12/22 11:09:15;;;;;;;2.50;1.20;;;;;;;13.63;65.70;96782.19;5051903;28;20934;-71
2022/12/22 11:11:45;;;;;;;4.43;1.30;;;;;;;13.83;65.45;96789.53;5040364;28;20441;-72
2022/12/22 11:14:32;;;;;;;3.93;1.30;;;;;;;13.89;64.35;96796.69;5052990;28;20684;-70
2022/12/22 11:17:02;;;;;;;9.67;1.77;;;;;;;13.58;64.97;96779.28;5050320;28;20414;-70
2022/12/22 11:19:52;;;;;;;6.47;1.77;;;;;;;13.81;64.78;96784.44;5050503;28;20428;-71
2022/12/22 11:22:35;;;;;;;3.87;1.30;;;;;;;14.20;64.12;96777.22;5050510;28;20450;-72
2022/12/22 11:25:13;;;;;;;1.73;1.00;;;;;;;14.28;63.57;96787.63;5051982;28;20917;-70
2022/12/22 11:27:59;;;;;;;5.13;1.40;;;;;;;14.59;62.36;96781.28;5052199;28;20426;-71
2022/12/22 11:30:43;;;;;;;4.97;1.30;;;;;;;14.54;61.54;96778.38;5049118;28;20456;-70
2022/12/22 11:33:37;;;;;;;4.20;1.03;;;;;;;14.23;62.31;96776.00;5058698;28;20432;-71
2022/12/22 11:36:05;;;;;;;4.40;1.20;;;;;;;14.48;61.78;96779.13;5050123;28;21003;-72
2022/12/22 11:39:07;;;;;;;2.33;0.90;;;;;;;14.49;61.98;96778.09;5064354;28;20422;-71
2022/12/22 11:41:35;;;;;;;4.57;0.80;;;;;;;14.55;61.72;96782.63;5049247;28;21046;-72
2022/12/22 11:44:06;;;;;;;2.27;1.17;;;;;;;14.49;61.51;96780.75;5051357;28;20417;-71
2022/12/22 11:46:45;;;;;;;3.83;1.30;;;;;;;14.50;61.03;96786.84;5050698;28;20523;-72
2022/12/22 11:49:27;;;;;;;4.00;1.30;;;;;;;14.39;61.10;96791.63;5048206;28;20413;-70
2022/12/22 11:52:11;;;;;;;2.30;1.30;;;;;;;14.62;61.35;96795.09;5060769;28;20449;-71
2022/12/22 11:54:36;;;;;;;4.60;1.30;;;;;;;14.75;60.87;96782.03;5042566;28;20845;-70
2022/12/22 11:57:21;;;;;;;3.30;1.47;;;;;;;14.68;60.68;96781.16;5050305;28;20493;-71
2022/12/22 11:59:56;;;;;;;6.13;1.17;;;;;;;14.87;60.11;96792.91;5051459;28;20643;-70
2022/12/22 12:02:50;;;;;;;4.03;1.40;;;;;;;14.28;60.78;96795.53;5050452;28;20886;-72
2022/12/22 12:05:37;;;;;;;3.57;1.20;;;;;;;14.67;60.25;96797.97;5049873;28;20548;-70
2022/12/22 12:08:05;;;;;;;2.60;1.20;;;;;;;14.68;60.09;96791.72;5051975;28;20429;-71
2022/12/22 12:10:45;;;;;;;5.80;1.40;;;;;;;14.77;59.85;96803.75;5064557;28;20445;-70
2022/12/22 12:13:25;;;;;;;3.97;1.10;;;;;;;15.02;59.29;96800.72;5070269;28;20422;-71
2022/12/22 12:16:01;;;;;;;4.20;1.30;;;;;;;14.88;59.21;96803.25;5054052;28;20516;-71
2022/12/22 12:19:04;;;;;;;2.23;1.00;;;;;;;14.69;59.34;96806.53;5049785;28;20425;-70
2022/12/22 12:21:44;;;;;;;1.83;1.03;;;;;;;14.76;59.30;96810.03;5046851;28;20438;-70
2022/12/22 12:24:39;;;;;;;4.57;1.30;;;;;;;14.51;58.89;96813.00;5063255;28;20425;-70
2022/12/22 12:27:23;;;;;;;2.73;1.00;;;;;;;14.74;58.58;96810.25;5046683;28;20997;-70
2022/12/22 12:29:57;;;;;;;4.53;1.23;;;;;;;14.71;59.06;96812.44;5047511;28;20520;-70
2022/12/22 12:32:30;;;;;;;2.73;0.97;;;;;;;14.74;58.77;96817.34;5057376;28;20594;-71
2022/12/22 12:35:18;;;;;;;4.23;1.00;;;;;;;14.72;58.95;96822.78;5055304;28;20460;-70
2022/12/22 12:37:44;;;;;;;2.87;1.00;;;;;;;14.73;59.09;96834.19;5042449;28;20845;-71
2022/12/22 12:40:26;;;;;;;3.20;1.03;;;;;;;14.53;59.33;96829.47;5050631;28;20437;-71
2022/12/22 12:42:51;;;;;;;3.83;1.20;;;;;;;14.59;59.43;96836.66;5051579;28;20449;-70
2022/12/22 12:45:41;;;;;;;2.20;1.10;;;;;;;14.67;59.15;96845.44;5048902;28;20514;-70
2022/12/22 12:48:18;;;;;;;2.53;0.90;;;;;;;14.75;58.87;96845.34;5032190;28;20183;-70
2022/12/22 12:50:44;;;;;;;3.50;1.07;;;;;;;14.79;58.67;96843.97;5051785;28;20453;-72
2022/12/22 12:53:10;;;;;;;2.40;1.07;;;;;;;14.82;58.39;96848.88;5062151;28;20425;-70
2022/12/22 12:55:38;;;;;;;2.17;0.90;;;;;;;14.56;58.34;96865.19;5049859;28;20219;-70
2022/12/22 12:58:09;;;;;;;2.80;1.00;;;;;;;14.51;58.53;96852.56;5049833;28;20179;-71
2022/12/22 13:00:34;;;;;;;3.00;1.00;;;;;;;14.62;58.25;96853.09;5045960;28;20849;-71
2022/12/22 13:03:10;;;;;;;2.30;1.00;;;;;;;14.40;58.63;96858.31;5062605;28;20508;-73
2022/12/22 13:05:53;;;;;;;2.07;1.10;;;;;;;14.37;58.73;96862.16;5056597;28;20219;-72
2022/12/22 13:08:25;;;;;;;2.80;0.90;;;;;;;14.42;58.65;96866.88;5052200;28;20421;-72
2022/12/22 13:10:54;;;;;;;3.00;1.00;;;;;;;14.31;59.05;96864.72;5063741;28;20805;-71
2022/12/22 13:13:25;;;;;;;3.77;1.20;;;;;;;14.41;58.89;96873.97;5056479;28;20420;-71
2022/12/22 13:15:59;;;;;;;3.60;1.37;;;;;;;14.42;58.99;96874.78;5057145;28;20475;-71
2022/12/22 13:18:25;;;;;;;1.90;1.13;;;;;;;14.43;59.00;96881.69;5053179;28;20421;-72
2022/12/22 13:21:05;;;;;;;5.50;1.30;;;;;;;14.50;58.58;96898.38;5053671;28;20979;-71
2022/12/22 13:23:37;;;;;;;3.47;1.00;;;;;;;14.53;58.66;96895.38;5051734;28;20190;-70
2022/12/22 13:26:13;;;;;;;1.93;0.90;;;;;;;14.58;58.61;96897.47;5055435;28;20563;-71
2022/12/22 13:28:40;;;;;;;2.00;1.03;;;;;;;14.53;58.63;96910.41;5061553;28;20425;-71
2022/12/22 13:31:17;;;;;;;3.57;1.20;;;;;;;14.61;58.48;96906.84;5069335;28;20445;-72
2022/12/22 13:33:44;;;;;;;2.70;1.00;;;;;;;14.48;58.63;96905.69;5053610;28;20433;-72
2022/12/22 13:36:18;;;;;;;2.00;0.90;;;;;;;14.50;58.78;96911.56;5053439;28;20921;-73
2022/12/22 13:38:43;;;;;;;1.63;1.03;;;;;;;14.57;58.80;96915.13;5052905;28;20429;-71
2022/12/22 13:41:16;;;;;;;2.20;0.90;;;;;;;14.56;58.82;96913.47;5057189;28;20819;-70
2022/12/22 13:43:43;;;;;;;4.60;1.20;;;;;;;14.50;58.84;96919.47;5051318;28;20191;-71
2022/12/22 13:46:08;;;;;;;2.13;0.87;;;;;;;14.50;58.65;96908.13;5051116;28;20461;-71
2022/12/22 13:48:39;;;;;;;4.23;1.37;;;;;;;14.61;58.25;96910.28;5064495;28;20512;-71
2022/12/22 13:51:08;;;;;;;3.90;0.87;;;;;;;14.61;58.24;96909.50;5053199;28;20690;-70
2022/12/22 13:53:41;;;;;;;3.60;1.30;;;;;;;14.53;58.13;96921.75;5068615;28;21077;-71
2022/12/22 13:56:12;;;;;;;2.60;0.97;;;;;;;14.44;58.29;96923.66;5052667;28;20487;-70
2022/12/22 13:58:39;;;;;;;4.83;1.20;;;;;;;14.33;58.19;96923.34;5067657;28;20434;-69
2022/12/22 14:01:10;;;;;;;3.60;1.70;;;;;;;14.43;58.30;96924.66;5051967;28;20449;-70
2022/12/22 14:03:46;;;;;;;2.33;1.00;;;;;;;14.43;58.25;96934.41;5045242;28;20489;-70
2022/12/22 14:06:31;;;;;;;3.57;1.13;;;;;;;14.50;58.11;96939.78;5051736;28;20465;-70
2022/12/22 14:09:11;;;;;;;3.73;1.10;;;;;;;14.55;57.91;96926.88;5052802;28;20522;-71
2022/12/22 14:11:37;;;;;;;5.57;1.40;;;;;;;14.62;57.68;96935.66;5057539;28;21090;-70
2022/12/22 14:14:08;;;;;;;2.60;0.97;;;;;;;14.70;57.29;96934.78;5052870;28;20468;-71
2022/12/22 14:16:33;;;;;;;4.43;1.67;;;;;;;14.43;57.36;96948.41;5052106;28;20633;-72
2022/12/22 14:18:59;;;;;;;3.17;1.30;;;;;;;14.46;57.52;96936.69;5052517;28;20422;-71
2022/12/22 14:21:25;;;;;;;3.57;1.23;;;;;;;14.48;57.45;96931.22;5045303;28;20294;-71
2022/12/22 14:23:51;;;;;;;3.80;1.30;;;;;;;14.56;57.37;96918.75;5051021;28;20649;-71
2022/12/22 14:26:18;;;;;;;4.40;1.27;;;;;;;14.45;57.56;96935.06;5051496;28;20326;-71
2022/12/22 14:28:49;;;;;;;4.67;1.37;;;;;;;14.50;57.64;96934.50;5051099;28;20187;-71
2022/12/22 14:31:16;;;;;;;5.37;2.03;;;;;;;14.47;56.89;96929.59;5051963;28;20458;-71
2022/12/22 14:33:55;;;;;;;6.50;1.87;;;;;;;14.40;57.04;96934.78;5053084;28;20433;-71
2022/12/22 14:36:25;;;;;;;5.50;1.50;;;;;;;14.36;57.32;96934.31;5052228;28;20433;-70
2022/12/22 14:38:54;;;;;;;4.73;1.43;;;;;;;14.37;57.25;96935.13;5046422;28;20486;-71
2022/12/22 14:41:47;;;;;;;6.67;1.80;;;;;;;14.36;57.31;96944.06;5059515;28;20440;-70
2022/12/22 14:44:32;;;;;;;9.77;2.13;;;;;;;14.15;57.74;96945.59;5042737;28;20434;-71
2022/12/22 14:47:06;;;;;;;8.20;2.00;;;;;;;14.25;57.44;96938.22;5061040;28;20464;-71
2022/12/22 14:49:32;;;;;;;7.40;1.90;;;;;;;14.22;57.33;96948.31;5047628;28;20441;-70
2022/12/22 14:52:05;;;;;;;10.60;2.80;;;;;;;14.19;57.50;96953.94;5053127;28;20500;-71
2022/12/22 14:54:31;;;;;;;10.00;2.13;;;;;;;14.15;57.77;96950.88;5060079;28;20425;-70
2022/12/22 14:57:10;;;;;;;7.77;2.07;;;;;;;14.07;58.00;96970.22;5037356;28;20450;-72
2022/12/22 14:59:35;;;;;;;6.40;2.00;;;;;;;13.88;58.77;96968.91;5056900;28;20634;-70
2022/12/22 15:02:17;;;;;;;10.43;2.70;;;;;;;13.92;58.72;96956.22;5052598;28;20449;-70
2022/12/22 15:04:43;;;;;;;6.90;1.80;;;;;;;13.92;58.77;96958.84;5069447;28;20194;-71
2022/12/22 15:07:17;;;;;;;7.60;2.00;;;;;;;13.88;58.70;96958.38;5051942;28;20567;-71
2022/12/22 15:09:42;;;;;;;11.07;2.20;;;;;;;13.62;59.41;96961.41;5052618;28;20186;-69
2022/12/22 15:12:13;;;;;;;6.60;1.47;;;;;;;13.70;59.32;96971.06;5052504;28;20958;-70
2022/12/22 15:14:39;;;;;;;8.20;1.73;;;;;;;13.78;59.11;96973.63;5052130;28;20191;-70
2022/12/22 15:17:10;;;;;;;7.70;2.00;;;;;;;13.67;59.70;96986.22;5055790;28;20428;-71
2022/12/22 15:19:35;;;;;;;9.37;2.43;;;;;;;13.73;59.43;96989.16;5062987;28;20649;-70